Market Drayton, United Kingdom
Current Conditions -  °F | °C
As of 1:50 AM on Sunday 26 Oct 2014 (Local Time) from EGOS Reporting Station
Broken Clouds Broken Clouds  
Wind Chill: 13°   Ceiling: 23000
Heat Index: 13°   Visibility: 6mi
Dew Point:   Wind: 18mph
Humidity: 72%   Direction: 230°SW
Pressure: 30"   Gusts: NA
Location:  52.91°N, 2.49°W
Report Text: EGOS 260050Z AUTO 23016KT 9999 FEW033/// BKN230/// 13/08 Q1016
Loading
Personal Weather Stations






























Interactive Weather Map
Tropical Storm Tracking
New forecast layout! Learn more

10-Day Weather Forecast

Advertisements
Track Severe Weather on mobile